sensor_id;sensor_type;location;lat;lon;timestamp;P1;durP1;ratioP1;P2;durP2;ratioP2
8086;SDS011;4086;54.412;9.980;2023-04-28T00:00:31;7.53;;;6.63;;
8086;SDS011;4086;54.412;9.980;2023-04-28T00:02:58;10.83;;;6.87;;
8086;SDS011;4086;54.412;9.980;2023-04-28T00:05:24;9.27;;;6.20;;
8086;SDS011;4086;54.412;9.980;2023-04-28T00:07:50;9.50;;;6.40;;
8086;SDS011;4086;54.412;9.980;2023-04-28T00:10:17;8.10;;;6.30;;
8086;SDS011;4086;54.412;9.980;2023-04-28T00:12:45;8.67;;;6.10;;
8086;SDS011;4086;54.412;9.980;2023-04-28T00:15:11;11.10;;;6.60;;
8086;SDS011;4086;54.412;9.980;2023-04-28T00:17:38;8.40;;;6.47;;
8086;SDS011;4086;54.412;9.980;2023-04-28T00:20:05;9.53;;;6.43;;
8086;SDS011;4086;54.412;9.980;2023-04-28T00:22:32;11.43;;;6.90;;
8086;SDS011;4086;54.412;9.980;2023-04-28T00:24:58;9.80;;;6.80;;
8086;SDS011;4086;54.412;9.980;2023-04-28T00:27:25;8.60;;;6.50;;
8086;SDS011;4086;54.412;9.980;2023-04-28T00:29:52;10.10;;;6.20;;
8086;SDS011;4086;54.412;9.980;2023-04-28T00:32:19;7.60;;;6.03;;
8086;SDS011;4086;54.412;9.980;2023-04-28T00:34:45;9.87;;;6.50;;
8086;SDS011;4086;54.412;9.980;2023-04-28T00:37:12;9.40;;;6.40;;
8086;SDS011;4086;54.412;9.980;2023-04-28T00:39:38;8.37;;;6.93;;
8086;SDS011;4086;54.412;9.980;2023-04-28T00:42:05;9.73;;;6.93;;
8086;SDS011;4086;54.412;9.980;2023-04-28T00:44:32;8.67;;;7.00;;
8086;SDS011;4086;54.412;9.980;2023-04-28T00:46:59;11.70;;;7.13;;
8086;SDS011;4086;54.412;9.980;2023-04-28T00:49:26;9.40;;;7.60;;
8086;SDS011;4086;54.412;9.980;2023-04-28T00:51:52;10.93;;;6.83;;
8086;SDS011;4086;54.412;9.980;2023-04-28T00:54:19;10.33;;;7.97;;
8086;SDS011;4086;54.412;9.980;2023-04-28T00:56:46;10.03;;;8.33;;
8086;SDS011;4086;54.412;9.980;2023-04-28T00:59:12;11.73;;;8.23;;
8086;SDS011;4086;54.412;9.980;2023-04-28T01:01:39;11.70;;;8.17;;
8086;SDS011;4086;54.412;9.980;2023-04-28T01:04:06;9.40;;;7.13;;
8086;SDS011;4086;54.412;9.980;2023-04-28T01:06:33;9.77;;;6.87;;
8086;SDS011;4086;54.412;9.980;2023-04-28T01:09:00;10.90;;;7.17;;
8086;SDS011;4086;54.412;9.980;2023-04-28T01:11:26;11.40;;;7.50;;
8086;SDS011;4086;54.412;9.980;2023-04-28T01:13:53;11.53;;;7.30;;
8086;SDS011;4086;54.412;9.980;2023-04-28T01:16:21;12.70;;;7.63;;
8086;SDS011;4086;54.412;9.980;2023-04-28T01:18:47;10.23;;;7.70;;
8086;SDS011;4086;54.412;9.980;2023-04-28T01:21:19;10.00;;;7.40;;
8086;SDS011;4086;54.412;9.980;2023-04-28T01:23:54;10.27;;;7.50;;
8086;SDS011;4086;54.412;9.980;2023-04-28T01:26:20;9.47;;;7.10;;
8086;SDS011;4086;54.412;9.980;2023-04-28T01:28:47;9.50;;;7.43;;
8086;SDS011;4086;54.412;9.980;2023-04-28T01:31:13;10.77;;;7.53;;
8086;SDS011;4086;54.412;9.980;2023-04-28T01:33:39;9.77;;;7.10;;
8086;SDS011;4086;54.412;9.980;2023-04-28T01:36:06;10.90;;;7.30;;
8086;SDS011;4086;54.412;9.980;2023-04-28T01:38:33;12.50;;;7.67;;
8086;SDS011;4086;54.412;9.980;2023-04-28T01:41:00;10.73;;;8.00;;
8086;SDS011;4086;54.412;9.980;2023-04-28T01:43:27;10.10;;;7.87;;
8086;SDS011;4086;54.412;9.980;2023-04-28T01:45:53;10.63;;;7.80;;
8086;SDS011;4086;54.412;9.980;2023-04-28T01:48:20;10.07;;;7.63;;
8086;SDS011;4086;54.412;9.980;2023-04-28T01:50:46;10.30;;;7.47;;
8086;SDS011;4086;54.412;9.980;2023-04-28T01:53:12;10.30;;;7.97;;
8086;SDS011;4086;54.412;9.980;2023-04-28T01:55:39;10.73;;;8.67;;
8086;SDS011;4086;54.412;9.980;2023-04-28T01:58:07;12.23;;;8.30;;
8086;SDS011;4086;54.412;9.980;2023-04-28T02:00:33;9.93;;;7.37;;
8086;SDS011;4086;54.412;9.980;2023-04-28T02:02:59;9.87;;;6.70;;
8086;SDS011;4086;54.412;9.980;2023-04-28T02:05:26;8.67;;;7.30;;
8086;SDS011;4086;54.412;9.980;2023-04-28T02:07:52;9.33;;;7.90;;
8086;SDS011;4086;54.412;9.980;2023-04-28T02:10:19;10.27;;;7.40;;
8086;SDS011;4086;54.412;9.980;2023-04-28T02:12:45;12.27;;;7.77;;
8086;SDS011;4086;54.412;9.980;2023-04-28T02:15:13;8.67;;;6.90;;
8086;SDS011;4086;54.412;9.980;2023-04-28T02:17:40;8.07;;;6.40;;
8086;SDS011;4086;54.412;9.980;2023-04-28T02:20:07;11.37;;;7.70;;
8086;SDS011;4086;54.412;9.980;2023-04-28T02:22:34;8.53;;;6.80;;
8086;SDS011;4086;54.412;9.980;2023-04-28T02:25:01;8.03;;;6.43;;
8086;SDS011;4086;54.412;9.980;2023-04-28T02:27:27;10.27;;;7.40;;
8086;SDS011;4086;54.412;9.980;2023-04-28T02:29:54;8.63;;;6.57;;
8086;SDS011;4086;54.412;9.980;2023-04-28T02:32:22;11.27;;;7.37;;
8086;SDS011;4086;54.412;9.980;2023-04-28T02:34:51;9.83;;;6.77;;
8086;SDS011;4086;54.412;9.980;2023-04-28T02:37:18;8.53;;;6.77;;
8086;SDS011;4086;54.412;9.980;2023-04-28T02:39:44;10.97;;;7.20;;
8086;SDS011;4086;54.412;9.980;2023-04-28T02:42:11;7.10;;;6.37;;
8086;SDS011;4086;54.412;9.980;2023-04-28T02:44:37;11.10;;;7.03;;
8086;SDS011;4086;54.412;9.980;2023-04-28T02:47:04;7.33;;;6.00;;
8086;SDS011;4086;54.412;9.980;2023-04-28T02:49:31;7.90;;;6.27;;
8086;SDS011;4086;54.412;9.980;2023-04-28T02:51:58;9.20;;;6.93;;
8086;SDS011;4086;54.412;9.980;2023-04-28T02:54:24;9.97;;;7.83;;
8086;SDS011;4086;54.412;9.980;2023-04-28T02:56:52;8.03;;;6.60;;
8086;SDS011;4086;54.412;9.980;2023-04-28T02:59:19;8.67;;;7.53;;
8086;SDS011;4086;54.412;9.980;2023-04-28T03:01:45;10.70;;;7.20;;
8086;SDS011;4086;54.412;9.980;2023-04-28T03:04:11;12.13;;;7.20;;
8086;SDS011;4086;54.412;9.980;2023-04-28T03:06:39;9.10;;;6.87;;
8086;SDS011;4086;54.412;9.980;2023-04-28T03:09:06;13.43;;;7.53;;
8086;SDS011;4086;54.412;9.980;2023-04-28T03:11:32;8.60;;;6.60;;
8086;SDS011;4086;54.412;9.980;2023-04-28T03:13:59;10.03;;;6.67;;
8086;SDS011;4086;54.412;9.980;2023-04-28T03:16:25;8.43;;;7.20;;
8086;SDS011;4086;54.412;9.980;2023-04-28T03:18:52;8.00;;;6.40;;
8086;SDS011;4086;54.412;9.980;2023-04-28T03:21:18;9.07;;;6.83;;
8086;SDS011;4086;54.412;9.980;2023-04-28T03:23:46;10.97;;;6.37;;
8086;SDS011;4086;54.412;9.980;2023-04-28T03:26:12;11.00;;;7.10;;
8086;SDS011;4086;54.412;9.980;2023-04-28T03:28:39;7.93;;;7.10;;
8086;SDS011;4086;54.412;9.980;2023-04-28T03:31:05;9.43;;;7.13;;
8086;SDS011;4086;54.412;9.980;2023-04-28T03:33:32;8.43;;;6.97;;
8086;SDS011;4086;54.412;9.980;2023-04-28T03:35:58;10.37;;;7.40;;
8086;SDS011;4086;54.412;9.980;2023-04-28T03:38:24;9.50;;;8.00;;
8086;SDS011;4086;54.412;9.980;2023-04-28T03:40:53;7.73;;;6.73;;
8086;SDS011;4086;54.412;9.980;2023-04-28T03:43:19;8.07;;;6.83;;
8086;SDS011;4086;54.412;9.980;2023-04-28T03:45:46;10.53;;;7.53;;
8086;SDS011;4086;54.412;9.980;2023-04-28T03:48:13;8.50;;;6.80;;
8086;SDS011;4086;54.412;9.980;2023-04-28T03:50:40;8.23;;;6.53;;
8086;SDS011;4086;54.412;9.980;2023-04-28T03:53:07;8.57;;;6.40;;
8086;SDS011;4086;54.412;9.980;2023-04-28T03:55:33;10.87;;;7.10;;
8086;SDS011;4086;54.412;9.980;2023-04-28T03:58:01;8.20;;;7.07;;
8086;SDS011;4086;54.412;9.980;2023-04-28T04:00:28;9.27;;;6.27;;
8086;SDS011;4086;54.412;9.980;2023-04-28T04:02:54;7.63;;;6.17;;
8086;SDS011;4086;54.412;9.980;2023-04-28T04:05:20;9.33;;;6.13;;
8086;SDS011;4086;54.412;9.980;2023-04-28T04:07:47;8.20;;;6.50;;
8086;SDS011;4086;54.412;9.980;2023-04-28T04:10:13;9.57;;;6.60;;
8086;SDS011;4086;54.412;9.980;2023-04-28T04:12:39;8.27;;;7.00;;
8086;SDS011;4086;54.412;9.980;2023-04-28T04:15:08;8.07;;;6.33;;
8086;SDS011;4086;54.412;9.980;2023-04-28T04:17:35;7.57;;;6.07;;
8086;SDS011;4086;54.412;9.980;2023-04-28T04:20:01;9.43;;;7.47;;
8086;SDS011;4086;54.412;9.980;2023-04-28T04:22:28;7.27;;;6.00;;
8086;SDS011;4086;54.412;9.980;2023-04-28T04:24:54;7.87;;;6.67;;
8086;SDS011;4086;54.412;9.980;2023-04-28T04:27:20;10.23;;;8.20;;
8086;SDS011;4086;54.412;9.980;2023-04-28T04:29:47;10.13;;;7.77;;
8086;SDS011;4086;54.412;9.980;2023-04-28T04:32:14;10.23;;;7.90;;
8086;SDS011;4086;54.412;9.980;2023-04-28T04:34:41;7.97;;;7.17;;
8086;SDS011;4086;54.412;9.980;2023-04-28T04:37:08;10.23;;;7.63;;
8086;SDS011;4086;54.412;9.980;2023-04-28T04:39:34;9.40;;;7.60;;
8086;SDS011;4086;54.412;9.980;2023-04-28T04:42:00;10.17;;;7.40;;
8086;SDS011;4086;54.412;9.980;2023-04-28T04:44:27;10.37;;;7.67;;
8086;SDS011;4086;54.412;9.980;2023-04-28T04:46:53;7.47;;;6.43;;
8086;SDS011;4086;54.412;9.980;2023-04-28T04:49:21;9.97;;;7.17;;
8086;SDS011;4086;54.412;9.980;2023-04-28T04:51:47;8.07;;;6.10;;
8086;SDS011;4086;54.412;9.980;2023-04-28T04:54:14;7.33;;;6.47;;
8086;SDS011;4086;54.412;9.980;2023-04-28T04:56:40;9.57;;;6.27;;
8086;SDS011;4086;54.412;9.980;2023-04-28T04:59:07;8.87;;;7.50;;
8086;SDS011;4086;54.412;9.980;2023-04-28T05:01:33;9.30;;;7.50;;
8086;SDS011;4086;54.412;9.980;2023-04-28T05:04:00;12.77;;;8.07;;
8086;SDS011;4086;54.412;9.980;2023-04-28T05:06:27;10.17;;;7.20;;
8086;SDS011;4086;54.412;9.980;2023-04-28T05:08:54;13.47;;;8.10;;
8086;SDS011;4086;54.412;9.980;2023-04-28T05:11:22;11.13;;;8.13;;
8086;SDS011;4086;54.412;9.980;2023-04-28T05:13:48;12.00;;;8.00;;
8086;SDS011;4086;54.412;9.980;2023-04-28T05:16:15;10.00;;;7.90;;
8086;SDS011;4086;54.412;9.980;2023-04-28T05:18:41;10.70;;;7.70;;
8086;SDS011;4086;54.412;9.980;2023-04-28T05:21:08;9.93;;;8.23;;
8086;SDS011;4086;54.412;9.980;2023-04-28T05:23:37;11.17;;;8.13;;
8086;SDS011;4086;54.412;9.980;2023-04-28T05:26:03;11.77;;;8.33;;
8086;SDS011;4086;54.412;9.980;2023-04-28T05:28:30;15.10;;;9.37;;
8086;SDS011;4086;54.412;9.980;2023-04-28T05:30:56;13.50;;;9.50;;
8086;SDS011;4086;54.412;9.980;2023-04-28T05:33:23;12.13;;;9.40;;
8086;SDS011;4086;54.412;9.980;2023-04-28T05:35:49;12.20;;;9.13;;
8086;SDS011;4086;54.412;9.980;2023-04-28T05:38:16;15.77;;;10.13;;
8086;SDS011;4086;54.412;9.980;2023-04-28T05:40:43;14.83;;;9.87;;
8086;SDS011;4086;54.412;9.980;2023-04-28T05:43:10;15.67;;;10.53;;
8086;SDS011;4086;54.412;9.980;2023-04-28T05:45:36;14.97;;;9.93;;
8086;SDS011;4086;54.412;9.980;2023-04-28T05:48:03;16.23;;;9.67;;
8086;SDS011;4086;54.412;9.980;2023-04-28T05:50:29;12.20;;;8.87;;
8086;SDS011;4086;54.412;9.980;2023-04-28T05:52:56;12.07;;;8.23;;
8086;SDS011;4086;54.412;9.980;2023-04-28T05:55:23;13.70;;;9.47;;
8086;SDS011;4086;54.412;9.980;2023-04-28T05:57:52;11.10;;;7.87;;
8086;SDS011;4086;54.412;9.980;2023-04-28T06:00:18;10.63;;;8.07;;
8086;SDS011;4086;54.412;9.980;2023-04-28T06:02:45;11.70;;;9.40;;
8086;SDS011;4086;54.412;9.980;2023-04-28T06:05:12;9.60;;;7.93;;
8086;SDS011;4086;54.412;9.980;2023-04-28T06:07:38;11.87;;;8.80;;
8086;SDS011;4086;54.412;9.980;2023-04-28T06:10:05;13.90;;;9.17;;
8086;SDS011;4086;54.412;9.980;2023-04-28T06:12:32;10.30;;;8.53;;
8086;SDS011;4086;54.412;9.980;2023-04-28T06:15:00;11.57;;;8.87;;
8086;SDS011;4086;54.412;9.980;2023-04-28T06:17:26;13.17;;;9.47;;
8086;SDS011;4086;54.412;9.980;2023-04-28T06:19:55;13.80;;;9.17;;
8086;SDS011;4086;54.412;9.980;2023-04-28T06:22:23;14.63;;;10.10;;
8086;SDS011;4086;54.412;9.980;2023-04-28T06:24:49;14.63;;;10.57;;
8086;SDS011;4086;54.412;9.980;2023-04-28T06:27:15;14.43;;;10.83;;
8086;SDS011;4086;54.412;9.980;2023-04-28T06:29:42;15.17;;;11.03;;
8086;SDS011;4086;54.412;9.980;2023-04-28T06:32:10;15.93;;;11.67;;
8086;SDS011;4086;54.412;9.980;2023-04-28T06:34:36;19.80;;;13.30;;
8086;SDS011;4086;54.412;9.980;2023-04-28T06:37:03;17.50;;;12.70;;
8086;SDS011;4086;54.412;9.980;2023-04-28T06:39:30;18.37;;;12.83;;
8086;SDS011;4086;54.412;9.980;2023-04-28T06:41:56;17.07;;;12.70;;
8086;SDS011;4086;54.412;9.980;2023-04-28T06:44:22;20.07;;;14.37;;
8086;SDS011;4086;54.412;9.980;2023-04-28T06:46:49;20.87;;;13.90;;
8086;SDS011;4086;54.412;9.980;2023-04-28T06:49:16;18.90;;;13.73;;
8086;SDS011;4086;54.412;9.980;2023-04-28T06:51:43;18.53;;;13.90;;
8086;SDS011;4086;54.412;9.980;2023-04-28T06:54:10;18.57;;;12.60;;
8086;SDS011;4086;54.412;9.980;2023-04-28T06:56:36;16.07;;;12.33;;
8086;SDS011;4086;54.412;9.980;2023-04-28T06:59:02;16.13;;;10.80;;
8086;SDS011;4086;54.412;9.980;2023-04-28T07:01:29;13.63;;;10.50;;
8086;SDS011;4086;54.412;9.980;2023-04-28T07:03:56;13.87;;;10.67;;
8086;SDS011;4086;54.412;9.980;2023-04-28T07:06:23;16.93;;;11.30;;
8086;SDS011;4086;54.412;9.980;2023-04-28T07:08:51;14.67;;;10.80;;
8086;SDS011;4086;54.412;9.980;2023-04-28T07:11:17;13.50;;;10.33;;
8086;SDS011;4086;54.412;9.980;2023-04-28T07:13:44;12.00;;;10.00;;
8086;SDS011;4086;54.412;9.980;2023-04-28T07:16:13;13.67;;;10.57;;
8086;SDS011;4086;54.412;9.980;2023-04-28T07:18:39;12.93;;;10.17;;
8086;SDS011;4086;54.412;9.980;2023-04-28T07:21:06;13.53;;;10.70;;
8086;SDS011;4086;54.412;9.980;2023-04-28T07:23:33;13.00;;;10.30;;
8086;SDS011;4086;54.412;9.980;2023-04-28T07:26:02;13.03;;;9.90;;
8086;SDS011;4086;54.412;9.980;2023-04-28T07:28:28;13.07;;;10.40;;
8086;SDS011;4086;54.412;9.980;2023-04-28T07:30:55;14.77;;;10.80;;
8086;SDS011;4086;54.412;9.980;2023-04-28T07:33:21;12.17;;;9.10;;
8086;SDS011;4086;54.412;9.980;2023-04-28T07:35:48;12.33;;;9.73;;
8086;SDS011;4086;54.412;9.980;2023-04-28T07:38:16;11.50;;;9.57;;
8086;SDS011;4086;54.412;9.980;2023-04-28T07:40:45;10.80;;;9.07;;
8086;SDS011;4086;54.412;9.980;2023-04-28T07:43:12;9.97;;;8.60;;
8086;SDS011;4086;54.412;9.980;2023-04-28T07:45:39;9.17;;;7.70;;
8086;SDS011;4086;54.412;9.980;2023-04-28T07:48:05;10.33;;;8.47;;
8086;SDS011;4086;54.412;9.980;2023-04-28T07:50:32;9.23;;;8.03;;
8086;SDS011;4086;54.412;9.980;2023-04-28T07:52:59;8.87;;;7.97;;
8086;SDS011;4086;54.412;9.980;2023-04-28T07:55:25;8.80;;;7.77;;
8086;SDS011;4086;54.412;9.980;2023-04-28T07:57:53;9.20;;;7.70;;
8086;SDS011;4086;54.412;9.980;2023-04-28T08:00:19;9.27;;;7.40;;
8086;SDS011;4086;54.412;9.980;2023-04-28T08:02:46;8.70;;;7.63;;
8086;SDS011;4086;54.412;9.980;2023-04-28T08:05:12;9.27;;;6.97;;
8086;SDS011;4086;54.412;9.980;2023-04-28T08:07:38;9.70;;;6.43;;
8086;SDS011;4086;54.412;9.980;2023-04-28T08:10:05;7.40;;;6.60;;
8086;SDS011;4086;54.412;9.980;2023-04-28T08:12:33;7.53;;;6.83;;
8086;SDS011;4086;54.412;9.980;2023-04-28T08:15:01;7.20;;;6.27;;
8086;SDS011;4086;54.412;9.980;2023-04-28T08:17:27;6.63;;;6.03;;
8086;SDS011;4086;54.412;9.980;2023-04-28T08:19:54;7.63;;;6.20;;
8086;SDS011;4086;54.412;9.980;2023-04-28T08:22:20;6.60;;;5.90;;
8086;SDS011;4086;54.412;9.980;2023-04-28T08:24:47;7.07;;;6.13;;
8086;SDS011;4086;54.412;9.980;2023-04-28T08:27:13;7.23;;;6.23;;
8086;SDS011;4086;54.412;9.980;2023-04-28T08:29:39;7.63;;;5.90;;
8086;SDS011;4086;54.412;9.980;2023-04-28T08:32:07;7.87;;;5.93;;
8086;SDS011;4086;54.412;9.980;2023-04-28T08:34:33;6.63;;;6.00;;
8086;SDS011;4086;54.412;9.980;2023-04-28T08:37:00;8.53;;;6.00;;
8086;SDS011;4086;54.412;9.980;2023-04-28T08:39:27;6.10;;;5.60;;
8086;SDS011;4086;54.412;9.980;2023-04-28T08:41:55;8.20;;;5.57;;
8086;SDS011;4086;54.412;9.980;2023-04-28T08:44:21;10.07;;;5.17;;
8086;SDS011;4086;54.412;9.980;2023-04-28T08:46:48;5.77;;;5.00;;
8086;SDS011;4086;54.412;9.980;2023-04-28T08:49:17;5.83;;;5.20;;
8086;SDS011;4086;54.412;9.980;2023-04-28T08:51:44;7.27;;;5.80;;
8086;SDS011;4086;54.412;9.980;2023-04-28T08:54:12;6.00;;;5.40;;
8086;SDS011;4086;54.412;9.980;2023-04-28T08:56:39;6.03;;;5.40;;
8086;SDS011;4086;54.412;9.980;2023-04-28T08:59:09;5.50;;;5.00;;
8086;SDS011;4086;54.412;9.980;2023-04-28T09:01:36;5.67;;;4.10;;
8086;SDS011;4086;54.412;9.980;2023-04-28T09:04:03;5.73;;;4.60;;
8086;SDS011;4086;54.412;9.980;2023-04-28T09:06:32;5.47;;;4.57;;
8086;SDS011;4086;54.412;9.980;2023-04-28T09:09:21;5.77;;;3.57;;
8086;SDS011;4086;54.412;9.980;2023-04-28T09:11:53;5.97;;;3.80;;
8086;SDS011;4086;54.412;9.980;2023-04-28T09:14:20;4.77;;;3.83;;
8086;SDS011;4086;54.412;9.980;2023-04-28T09:16:47;4.10;;;3.70;;
8086;SDS011;4086;54.412;9.980;2023-04-28T09:19:14;4.03;;;3.67;;
8086;SDS011;4086;54.412;9.980;2023-04-28T09:21:49;6.60;;;3.40;;
8086;SDS011;4086;54.412;9.980;2023-04-28T09:24:26;3.77;;;3.33;;
8086;SDS011;4086;54.412;9.980;2023-04-28T09:26:54;2.87;;;2.60;;
8086;SDS011;4086;54.412;9.980;2023-04-28T09:29:20;4.07;;;3.10;;
8086;SDS011;4086;54.412;9.980;2023-04-28T09:31:47;4.57;;;3.00;;
8086;SDS011;4086;54.412;9.980;2023-04-28T09:34:13;3.47;;;3.17;;
8086;SDS011;4086;54.412;9.980;2023-04-28T09:36:41;5.30;;;3.07;;
8086;SDS011;4086;54.412;9.980;2023-04-28T09:39:09;3.43;;;3.10;;
8086;SDS011;4086;54.412;9.980;2023-04-28T09:41:36;4.80;;;3.00;;
8086;SDS011;4086;54.412;9.980;2023-04-28T09:44:13;3.50;;;3.20;;
8086;SDS011;4086;54.412;9.980;2023-04-28T09:46:43;3.70;;;2.70;;
8086;SDS011;4086;54.412;9.980;2023-04-28T09:49:10;2.93;;;2.57;;
8086;SDS011;4086;54.412;9.980;2023-04-28T09:51:37;5.17;;;2.80;;
8086;SDS011;4086;54.412;9.980;2023-04-28T09:54:03;5.10;;;2.60;;
8086;SDS011;4086;54.412;9.980;2023-04-28T09:56:32;3.17;;;2.73;;
8086;SDS011;4086;54.412;9.980;2023-04-28T09:59:02;6.67;;;2.80;;
8086;SDS011;4086;54.412;9.980;2023-04-28T10:01:31;3.03;;;2.70;;
8086;SDS011;4086;54.412;9.980;2023-04-28T10:03:58;2.90;;;2.53;;
8086;SDS011;4086;54.412;9.980;2023-04-28T10:06:25;3.60;;;2.73;;
8086;SDS011;4086;54.412;9.980;2023-04-28T10:08:52;3.17;;;2.87;;
8086;SDS011;4086;54.412;9.980;2023-04-28T10:11:21;3.40;;;2.80;;
8086;SDS011;4086;54.412;9.980;2023-04-28T10:13:50;4.73;;;3.30;;
8086;SDS011;4086;54.412;9.980;2023-04-28T10:16:18;4.30;;;2.70;;
8086;SDS011;4086;54.412;9.980;2023-04-28T10:18:44;2.70;;;2.50;;
8086;SDS011;4086;54.412;9.980;2023-04-28T10:21:11;3.37;;;2.50;;
8086;SDS011;4086;54.412;9.980;2023-04-28T10:23:46;5.27;;;3.83;;
8086;SDS011;4086;54.412;9.980;2023-04-28T10:26:20;3.57;;;2.73;;
8086;SDS011;4086;54.412;9.980;2023-04-28T10:28:48;4.60;;;2.63;;
8086;SDS011;4086;54.412;9.980;2023-04-28T10:31:16;2.97;;;2.47;;
8086;SDS011;4086;54.412;9.980;2023-04-28T10:33:45;4.40;;;2.70;;
8086;SDS011;4086;54.412;9.980;2023-04-28T10:36:46;3.67;;;2.43;;
8086;SDS011;4086;54.412;9.980;2023-04-28T10:39:14;4.43;;;2.27;;
8086;SDS011;4086;54.412;9.980;2023-04-28T10:41:41;3.10;;;2.60;;
8086;SDS011;4086;54.412;9.980;2023-04-28T10:47:09;4.43;;;2.60;;
8086;SDS011;4086;54.412;9.980;2023-04-28T10:52:46;2.67;;;2.47;;
8086;SDS011;4086;54.412;9.980;2023-04-28T11:00:55;3.00;;;2.50;;
8086;SDS011;4086;54.412;9.980;2023-04-28T11:03:53;4.43;;;2.67;;
8086;SDS011;4086;54.412;9.980;2023-04-28T11:06:24;3.80;;;2.73;;
8086;SDS011;4086;54.412;9.980;2023-04-28T11:08:52;4.57;;;2.90;;
8086;SDS011;4086;54.412;9.980;2023-04-28T11:11:21;3.03;;;2.73;;
8086;SDS011;4086;54.412;9.980;2023-04-28T11:13:49;3.97;;;3.33;;
8086;SDS011;4086;54.412;9.980;2023-04-28T11:16:16;3.97;;;3.50;;
8086;SDS011;4086;54.412;9.980;2023-04-28T11:18:48;3.73;;;3.43;;
8086;SDS011;4086;54.412;9.980;2023-04-28T11:21:20;4.80;;;3.10;;
8086;SDS011;4086;54.412;9.980;2023-04-28T11:23:47;3.27;;;2.80;;
8086;SDS011;4086;54.412;9.980;2023-04-28T11:26:14;3.00;;;2.70;;
8086;SDS011;4086;54.412;9.980;2023-04-28T11:28:46;4.10;;;3.07;;
8086;SDS011;4086;54.412;9.980;2023-04-28T11:31:14;4.17;;;3.10;;
8086;SDS011;4086;54.412;9.980;2023-04-28T11:33:45;4.97;;;2.90;;
8086;SDS011;4086;54.412;9.980;2023-04-28T11:36:23;4.70;;;2.90;;
8086;SDS011;4086;54.412;9.980;2023-04-28T11:38:50;3.37;;;3.03;;
8086;SDS011;4086;54.412;9.980;2023-04-28T11:41:17;5.20;;;3.00;;
8086;SDS011;4086;54.412;9.980;2023-04-28T11:43:43;4.07;;;3.40;;
8086;SDS011;4086;54.412;9.980;2023-04-28T11:46:09;3.63;;;3.17;;
8086;SDS011;4086;54.412;9.980;2023-04-28T11:48:41;5.63;;;3.30;;
8086;SDS011;4086;54.412;9.980;2023-04-28T11:51:08;3.13;;;2.93;;
8086;SDS011;4086;54.412;9.980;2023-04-28T11:53:41;3.27;;;3.00;;
8086;SDS011;4086;54.412;9.980;2023-04-28T11:56:08;3.70;;;3.40;;
8086;SDS011;4086;54.412;9.980;2023-04-28T11:58:36;5.00;;;3.23;;
8086;SDS011;4086;54.412;9.980;2023-04-28T12:01:05;4.53;;;3.50;;
8086;SDS011;4086;54.412;9.980;2023-04-28T12:03:32;3.93;;;3.10;;
8086;SDS011;4086;54.412;9.980;2023-04-28T12:05:58;4.00;;;3.30;;
8086;SDS011;4086;54.412;9.980;2023-04-28T12:08:26;3.90;;;3.33;;
8086;SDS011;4086;54.412;9.980;2023-04-28T12:11:07;4.87;;;3.60;;
8086;SDS011;4086;54.412;9.980;2023-04-28T12:13:34;5.43;;;3.50;;
8086;SDS011;4086;54.412;9.980;2023-04-28T12:16:02;3.73;;;2.77;;
8086;SDS011;4086;54.412;9.980;2023-04-28T12:18:29;4.17;;;3.27;;
8086;SDS011;4086;54.412;9.980;2023-04-28T12:20:56;4.33;;;3.70;;
8086;SDS011;4086;54.412;9.980;2023-04-28T12:23:29;3.67;;;3.13;;
8086;SDS011;4086;54.412;9.980;2023-04-28T12:25:56;4.90;;;3.40;;
8086;SDS011;4086;54.412;9.980;2023-04-28T12:28:34;5.80;;;3.40;;
8086;SDS011;4086;54.412;9.980;2023-04-28T12:31:02;3.63;;;3.20;;
8086;SDS011;4086;54.412;9.980;2023-04-28T12:33:29;4.00;;;3.60;;
8086;SDS011;4086;54.412;9.980;2023-04-28T12:35:55;5.07;;;3.60;;
8086;SDS011;4086;54.412;9.980;2023-04-28T12:38:22;4.33;;;3.93;;
8086;SDS011;4086;54.412;9.980;2023-04-28T12:40:49;4.53;;;3.77;;
8086;SDS011;4086;54.412;9.980;2023-04-28T12:43:15;5.37;;;3.70;;
8086;SDS011;4086;54.412;9.980;2023-04-28T12:45:43;4.43;;;3.73;;
8086;SDS011;4086;54.412;9.980;2023-04-28T12:48:10;5.33;;;3.43;;
8086;SDS011;4086;54.412;9.980;2023-04-28T12:50:36;4.73;;;3.70;;
8086;SDS011;4086;54.412;9.980;2023-04-28T12:53:03;4.33;;;3.90;;
8086;SDS011;4086;54.412;9.980;2023-04-28T12:55:30;6.17;;;3.90;;
8086;SDS011;4086;54.412;9.980;2023-04-28T12:57:56;6.00;;;4.10;;
8086;SDS011;4086;54.412;9.980;2023-04-28T13:00:23;5.70;;;4.10;;
8086;SDS011;4086;54.412;9.980;2023-04-28T13:02:51;3.83;;;3.47;;
8086;SDS011;4086;54.412;9.980;2023-04-28T13:05:18;6.17;;;4.13;;
8086;SDS011;4086;54.412;9.980;2023-04-28T13:07:44;5.27;;;4.00;;
8086;SDS011;4086;54.412;9.980;2023-04-28T13:10:11;4.10;;;3.70;;
8086;SDS011;4086;54.412;9.980;2023-04-28T13:12:37;4.60;;;3.90;;
8086;SDS011;4086;54.412;9.980;2023-04-28T13:15:04;7.37;;;4.17;;
8086;SDS011;4086;54.412;9.980;2023-04-28T13:17:31;6.33;;;4.33;;
8086;SDS011;4086;54.412;9.980;2023-04-28T13:20:00;6.67;;;4.20;;
8086;SDS011;4086;54.412;9.980;2023-04-28T13:22:27;6.93;;;4.03;;
8086;SDS011;4086;54.412;9.980;2023-04-28T13:24:54;4.13;;;3.73;;
8086;SDS011;4086;54.412;9.980;2023-04-28T13:27:21;6.27;;;4.50;;
8086;SDS011;4086;54.412;9.980;2023-04-28T13:29:47;4.53;;;4.03;;
8086;SDS011;4086;54.412;9.980;2023-04-28T13:32:13;5.00;;;4.30;;
8086;SDS011;4086;54.412;9.980;2023-04-28T13:34:40;6.67;;;4.13;;
8086;SDS011;4086;54.412;9.980;2023-04-28T13:37:08;6.00;;;4.10;;
8086;SDS011;4086;54.412;9.980;2023-04-28T13:39:34;4.20;;;3.83;;
8086;SDS011;4086;54.412;9.980;2023-04-28T13:42:00;5.17;;;3.90;;
8086;SDS011;4086;54.412;9.980;2023-04-28T13:44:27;5.33;;;4.00;;
8086;SDS011;4086;54.412;9.980;2023-04-28T13:46:53;5.67;;;3.83;;
8086;SDS011;4086;54.412;9.980;2023-04-28T13:49:20;4.10;;;3.77;;
8086;SDS011;4086;54.412;9.980;2023-04-28T13:51:47;5.83;;;3.83;;
8086;SDS011;4086;54.412;9.980;2023-04-28T13:54:15;4.60;;;4.20;;
8086;SDS011;4086;54.412;9.980;2023-04-28T13:56:41;5.97;;;4.00;;
8086;SDS011;4086;54.412;9.980;2023-04-28T13:59:08;4.77;;;4.10;;
8086;SDS011;4086;54.412;9.980;2023-04-28T14:01:34;4.77;;;4.23;;
8086;SDS011;4086;54.412;9.980;2023-04-28T14:04:00;4.90;;;3.93;;
8086;SDS011;4086;54.412;9.980;2023-04-28T14:06:27;4.30;;;3.90;;
8086;SDS011;4086;54.412;9.980;2023-04-28T14:08:53;5.37;;;3.93;;
8086;SDS011;4086;54.412;9.980;2023-04-28T14:11:21;5.33;;;3.80;;
8086;SDS011;4086;54.412;9.980;2023-04-28T14:13:47;5.60;;;4.00;;
8086;SDS011;4086;54.412;9.980;2023-04-28T14:16:14;5.37;;;4.17;;
8086;SDS011;4086;54.412;9.980;2023-04-28T14:18:40;4.93;;;3.90;;
8086;SDS011;4086;54.412;9.980;2023-04-28T14:21:06;6.43;;;3.97;;
8086;SDS011;4086;54.412;9.980;2023-04-28T14:23:33;4.97;;;4.00;;
8086;SDS011;4086;54.412;9.980;2023-04-28T14:26:00;6.23;;;3.70;;
8086;SDS011;4086;54.412;9.980;2023-04-28T14:28:28;4.57;;;4.00;;
8086;SDS011;4086;54.412;9.980;2023-04-28T14:30:55;8.20;;;3.90;;
8086;SDS011;4086;54.412;9.980;2023-04-28T14:33:21;4.93;;;3.40;;
8086;SDS011;4086;54.412;9.980;2023-04-28T14:35:48;4.10;;;3.70;;
8086;SDS011;4086;54.412;9.980;2023-04-28T14:38:14;4.40;;;4.00;;
8086;SDS011;4086;54.412;9.980;2023-04-28T14:40:41;4.73;;;3.77;;
8086;SDS011;4086;54.412;9.980;2023-04-28T14:43:08;5.17;;;3.93;;
8086;SDS011;4086;54.412;9.980;2023-04-28T14:45:35;6.07;;;3.67;;
8086;SDS011;4086;54.412;9.980;2023-04-28T14:48:02;4.40;;;3.50;;
8086;SDS011;4086;54.412;9.980;2023-04-28T14:50:30;4.60;;;4.20;;
8086;SDS011;4086;54.412;9.980;2023-04-28T14:52:57;5.43;;;4.37;;
8086;SDS011;4086;54.412;9.980;2023-04-28T14:55:29;4.87;;;4.00;;
8086;SDS011;4086;54.412;9.980;2023-04-28T14:57:55;4.30;;;3.90;;
8086;SDS011;4086;54.412;9.980;2023-04-28T15:00:22;7.50;;;4.13;;
8086;SDS011;4086;54.412;9.980;2023-04-28T15:02:50;6.73;;;4.57;;
8086;SDS011;4086;54.412;9.980;2023-04-28T15:05:16;4.77;;;4.27;;
8086;SDS011;4086;54.412;9.980;2023-04-28T15:07:43;6.50;;;4.50;;
8086;SDS011;4086;54.412;9.980;2023-04-28T15:10:09;6.03;;;4.40;;
8086;SDS011;4086;54.412;9.980;2023-04-28T15:12:36;4.77;;;4.27;;
8086;SDS011;4086;54.412;9.980;2023-04-28T15:15:02;5.37;;;4.87;;
8086;SDS011;4086;54.412;9.980;2023-04-28T15:17:29;6.27;;;4.70;;
8086;SDS011;4086;54.412;9.980;2023-04-28T15:19:56;4.63;;;4.23;;
8086;SDS011;4086;54.412;9.980;2023-04-28T15:22:23;8.03;;;4.90;;